sensor_id;sensor_type;location;lat;lon;timestamp;temperature;humidity
24226;DHT22;51462;51.422;5.514;2022-12-19T00:02:11;4.30;99.90
24226;DHT22;51462;51.422;5.514;2022-12-19T00:04:37;4.30;99.90
24226;DHT22;51462;51.422;5.514;2022-12-19T00:07:02;4.40;99.90
24226;DHT22;51462;51.422;5.514;2022-12-19T00:09:28;4.50;99.90
24226;DHT22;51462;51.422;5.514;2022-12-19T00:11:53;4.70;99.90
24226;DHT22;51462;51.422;5.514;2022-12-19T00:14:19;4.50;99.90
24226;DHT22;51462;51.422;5.514;2022-12-19T00:16:45;4.30;99.90
24226;DHT22;51462;51.422;5.514;2022-12-19T00:19:11;4.40;99.90
24226;DHT22;51462;51.422;5.514;2022-12-19T00:21:37;4.30;99.90
24226;DHT22;51462;51.422;5.514;2022-12-19T00:24:04;4.30;99.90
24226;DHT22;51462;51.422;5.514;2022-12-19T00:26:32;4.40;99.90
24226;DHT22;51462;51.422;5.514;2022-12-19T00:29:03;4.30;99.90
24226;DHT22;51462;51.422;5.514;2022-12-19T00:31:31;4.40;99.90
24226;DHT22;51462;51.422;5.514;2022-12-19T00:33:58;4.40;99.90
24226;DHT22;51462;51.422;5.514;2022-12-19T00:36:26;4.40;99.90
24226;DHT22;51462;51.422;5.514;2022-12-19T00:38:53;4.50;99.90
24226;DHT22;51462;51.422;5.514;2022-12-19T00:41:24;4.60;99.90
24226;DHT22;51462;51.422;5.514;2022-12-19T00:46:23;4.70;99.90
24226;DHT22;51462;51.422;5.514;2022-12-19T00:48:49;4.10;99.90
24226;DHT22;51462;51.422;5.514;2022-12-19T00:51:16;4.60;99.90
24226;DHT22;51462;51.422;5.514;2022-12-19T00:53:43;4.70;99.90
24226;DHT22;51462;51.422;5.514;2022-12-19T00:56:15;4.40;99.90
24226;DHT22;51462;51.422;5.514;2022-12-19T00:58:41;4.40;99.90
24226;DHT22;51462;51.422;5.514;2022-12-19T01:01:13;4.80;99.90
24226;DHT22;51462;51.422;5.514;2022-12-19T01:03:39;4.80;99.90
24226;DHT22;51462;51.422;5.514;2022-12-19T01:06:05;4.90;99.90
24226;DHT22;51462;51.422;5.514;2022-12-19T01:08:31;5.10;99.90
24226;DHT22;51462;51.422;5.514;2022-12-19T01:10:56;4.90;99.90
24226;DHT22;51462;51.422;5.514;2022-12-19T01:13:23;4.70;99.90
24226;DHT22;51462;51.422;5.514;2022-12-19T01:15:49;4.80;99.90
24226;DHT22;51462;51.422;5.514;2022-12-19T01:18:15;4.90;99.90
24226;DHT22;51462;51.422;5.514;2022-12-19T01:20:43;4.90;99.90
24226;DHT22;51462;51.422;5.514;2022-12-19T01:23:12;4.70;99.90
24226;DHT22;51462;51.422;5.514;2022-12-19T01:25:38;4.60;99.90
24226;DHT22;51462;51.422;5.514;2022-12-19T01:28:05;4.80;99.90
24226;DHT22;51462;51.422;5.514;2022-12-19T01:30:31;4.80;99.90
24226;DHT22;51462;51.422;5.514;2022-12-19T01:32:57;4.60;99.90
24226;DHT22;51462;51.422;5.514;2022-12-19T01:35:23;4.50;99.90
24226;DHT22;51462;51.422;5.514;2022-12-19T01:37:50;4.50;99.90
24226;DHT22;51462;51.422;5.514;2022-12-19T01:40:16;4.70;99.90
24226;DHT22;51462;51.422;5.514;2022-12-19T01:42:42;4.80;99.90
24226;DHT22;51462;51.422;5.514;2022-12-19T01:50:38;5.00;99.90
24226;DHT22;51462;51.422;5.514;2022-12-19T01:53:06;4.80;99.90
24226;DHT22;51462;51.422;5.514;2022-12-19T01:55:33;4.70;99.90
24226;DHT22;51462;51.422;5.514;2022-12-19T01:58:00;4.90;99.90
24226;DHT22;51462;51.422;5.514;2022-12-19T02:00:26;5.00;99.90
24226;DHT22;51462;51.422;5.514;2022-12-19T02:02:57;5.10;99.90
24226;DHT22;51462;51.422;5.514;2022-12-19T02:05:24;5.10;99.90
24226;DHT22;51462;51.422;5.514;2022-12-19T02:07:50;4.90;99.90
24226;DHT22;51462;51.422;5.514;2022-12-19T02:10:16;5.00;99.90
24226;DHT22;51462;51.422;5.514;2022-12-19T02:12:43;5.00;99.90
24226;DHT22;51462;51.422;5.514;2022-12-19T02:15:10;5.00;99.90
24226;DHT22;51462;51.422;5.514;2022-12-19T02:23:21;4.40;99.90
24226;DHT22;51462;51.422;5.514;2022-12-19T02:36:49;5.00;99.90
24226;DHT22;51462;51.422;5.514;2022-12-19T02:41:57;4.90;99.90
24226;DHT22;51462;51.422;5.514;2022-12-19T02:44:33;5.00;99.90
24226;DHT22;51462;51.422;5.514;2022-12-19T02:47:02;4.90;99.90
24226;DHT22;51462;51.422;5.514;2022-12-19T02:49:29;5.00;99.90
24226;DHT22;51462;51.422;5.514;2022-12-19T02:51:54;4.90;99.90
24226;DHT22;51462;51.422;5.514;2022-12-19T02:54:21;4.90;99.90
24226;DHT22;51462;51.422;5.514;2022-12-19T02:57:08;4.80;99.90
24226;DHT22;51462;51.422;5.514;2022-12-19T03:14:18;4.70;99.90
24226;DHT22;51462;51.422;5.514;2022-12-19T03:16:45;4.80;99.90
24226;DHT22;51462;51.422;5.514;2022-12-19T03:19:12;4.70;99.90
24226;DHT22;51462;51.422;5.514;2022-12-19T03:21:48;4.60;99.90
24226;DHT22;51462;51.422;5.514;2022-12-19T03:24:15;4.70;99.90
24226;DHT22;51462;51.422;5.514;2022-12-19T03:26:58;4.60;99.90
24226;DHT22;51462;51.422;5.514;2022-12-19T03:29:39;4.50;99.90
24226;DHT22;51462;51.422;5.514;2022-12-19T03:32:08;4.60;99.90
24226;DHT22;51462;51.422;5.514;2022-12-19T03:34:51;4.60;99.90
24226;DHT22;51462;51.422;5.514;2022-12-19T03:37:22;4.50;99.90
24226;DHT22;51462;51.422;5.514;2022-12-19T03:39:51;4.60;99.90
24226;DHT22;51462;51.422;5.514;2022-12-19T03:42:20;4.60;99.90
24226;DHT22;51462;51.422;5.514;2022-12-19T03:45:06;4.50;99.90
24226;DHT22;51462;51.422;5.514;2022-12-19T03:47:37;4.60;99.90
24226;DHT22;51462;51.422;5.514;2022-12-19T03:50:04;4.50;99.90
24226;DHT22;51462;51.422;5.514;2022-12-19T03:55:17;4.60;99.90
24226;DHT22;51462;51.422;5.514;2022-12-19T03:57:56;4.60;99.90
24226;DHT22;51462;51.422;5.514;2022-12-19T04:00:23;4.70;99.90
24226;DHT22;51462;51.422;5.514;2022-12-19T04:02:52;4.70;99.90
24226;DHT22;51462;51.422;5.514;2022-12-19T04:05:22;4.80;99.90
24226;DHT22;51462;51.422;5.514;2022-12-19T04:07:50;4.80;99.90
24226;DHT22;51462;51.422;5.514;2022-12-19T04:10:20;4.70;99.90
24226;DHT22;51462;51.422;5.514;2022-12-19T04:13:13;4.90;99.90
24226;DHT22;51462;51.422;5.514;2022-12-19T04:15:50;4.90;99.90
24226;DHT22;51462;51.422;5.514;2022-12-19T04:18:19;4.90;99.90
24226;DHT22;51462;51.422;5.514;2022-12-19T04:21:01;4.90;99.90
24226;DHT22;51462;51.422;5.514;2022-12-19T04:23:37;5.10;99.90
24226;DHT22;51462;51.422;5.514;2022-12-19T04:26:04;5.00;99.90
24226;DHT22;51462;51.422;5.514;2022-12-19T04:28:42;5.10;99.90
24226;DHT22;51462;51.422;5.514;2022-12-19T04:31:11;5.10;99.90
24226;DHT22;51462;51.422;5.514;2022-12-19T04:33:37;5.00;99.90
24226;DHT22;51462;51.422;5.514;2022-12-19T04:36:03;5.00;99.90
24226;DHT22;51462;51.422;5.514;2022-12-19T04:38:29;5.20;99.90
24226;DHT22;51462;51.422;5.514;2022-12-19T04:40:54;5.20;99.90
24226;DHT22;51462;51.422;5.514;2022-12-19T04:43:21;5.20;99.90
24226;DHT22;51462;51.422;5.514;2022-12-19T04:45:46;5.40;99.90
24226;DHT22;51462;51.422;5.514;2022-12-19T04:48:12;5.30;99.90
24226;DHT22;51462;51.422;5.514;2022-12-19T04:50:38;5.20;99.90
24226;DHT22;51462;51.422;5.514;2022-12-19T04:53:03;5.30;99.90
24226;DHT22;51462;51.422;5.514;2022-12-19T04:55:29;5.30;99.90
24226;DHT22;51462;51.422;5.514;2022-12-19T04:57:54;5.30;99.90
24226;DHT22;51462;51.422;5.514;2022-12-19T05:00:20;5.20;99.90
24226;DHT22;51462;51.422;5.514;2022-12-19T05:02:45;5.40;99.90
24226;DHT22;51462;51.422;5.514;2022-12-19T05:05:11;5.40;99.90
24226;DHT22;51462;51.422;5.514;2022-12-19T05:07:37;5.40;99.90
24226;DHT22;51462;51.422;5.514;2022-12-19T05:10:03;5.60;99.90
24226;DHT22;51462;51.422;5.514;2022-12-19T05:12:29;5.60;99.90
24226;DHT22;51462;51.422;5.514;2022-12-19T05:14:54;5.40;99.90
24226;DHT22;51462;51.422;5.514;2022-12-19T05:17:20;5.50;99.90
24226;DHT22;51462;51.422;5.514;2022-12-19T05:19:46;5.60;99.90
24226;DHT22;51462;51.422;5.514;2022-12-19T05:22:11;5.60;99.90
24226;DHT22;51462;51.422;5.514;2022-12-19T05:24:37;5.80;99.90
24226;DHT22;51462;51.422;5.514;2022-12-19T05:27:03;5.60;99.90
24226;DHT22;51462;51.422;5.514;2022-12-19T05:29:28;5.80;99.90
24226;DHT22;51462;51.422;5.514;2022-12-19T05:31:54;5.80;99.90
24226;DHT22;51462;51.422;5.514;2022-12-19T05:34:20;5.80;99.90
24226;DHT22;51462;51.422;5.514;2022-12-19T05:36:45;5.80;99.90
24226;DHT22;51462;51.422;5.514;2022-12-19T05:39:11;5.70;99.90
24226;DHT22;51462;51.422;5.514;2022-12-19T05:41:36;5.90;99.90
24226;DHT22;51462;51.422;5.514;2022-12-19T05:44:02;5.90;99.90
24226;DHT22;51462;51.422;5.514;2022-12-19T05:46:27;5.90;99.90
24226;DHT22;51462;51.422;5.514;2022-12-19T05:48:54;6.30;99.90
24226;DHT22;51462;51.422;5.514;2022-12-19T05:51:20;5.90;99.90
24226;DHT22;51462;51.422;5.514;2022-12-19T05:53:46;6.10;99.90
24226;DHT22;51462;51.422;5.514;2022-12-19T05:56:17;6.30;99.90
24226;DHT22;51462;51.422;5.514;2022-12-19T05:58:43;6.20;99.90
24226;DHT22;51462;51.422;5.514;2022-12-19T06:01:16;6.00;99.90
24226;DHT22;51462;51.422;5.514;2022-12-19T06:03:42;6.30;99.90
24226;DHT22;51462;51.422;5.514;2022-12-19T06:06:10;6.20;99.90
24226;DHT22;51462;51.422;5.514;2022-12-19T06:08:37;6.30;99.90
24226;DHT22;51462;51.422;5.514;2022-12-19T06:11:04;6.40;99.90
24226;DHT22;51462;51.422;5.514;2022-12-19T06:13:30;6.40;99.90
24226;DHT22;51462;51.422;5.514;2022-12-19T06:15:57;6.50;99.90
24226;DHT22;51462;51.422;5.514;2022-12-19T06:18:23;6.40;99.90
24226;DHT22;51462;51.422;5.514;2022-12-19T06:20:56;6.50;99.90
24226;DHT22;51462;51.422;5.514;2022-12-19T06:23:22;6.40;99.90
24226;DHT22;51462;51.422;5.514;2022-12-19T06:25:48;6.50;99.90
24226;DHT22;51462;51.422;5.514;2022-12-19T06:28:13;6.40;99.90
24226;DHT22;51462;51.422;5.514;2022-12-19T06:30:39;6.60;99.90
24226;DHT22;51462;51.422;5.514;2022-12-19T06:33:04;6.60;99.90
24226;DHT22;51462;51.422;5.514;2022-12-19T06:35:30;6.40;99.90
24226;DHT22;51462;51.422;5.514;2022-12-19T06:37:55;6.50;99.90
24226;DHT22;51462;51.422;5.514;2022-12-19T06:40:21;6.60;99.90
24226;DHT22;51462;51.422;5.514;2022-12-19T06:43:07;6.60;99.90
24226;DHT22;51462;51.422;5.514;2022-12-19T06:45:33;6.50;99.90
24226;DHT22;51462;51.422;5.514;2022-12-19T06:47:58;6.70;99.90
24226;DHT22;51462;51.422;5.514;2022-12-19T06:50:24;6.80;99.90
24226;DHT22;51462;51.422;5.514;2022-12-19T06:52:50;6.80;99.90
24226;DHT22;51462;51.422;5.514;2022-12-19T06:55:15;6.80;99.90
24226;DHT22;51462;51.422;5.514;2022-12-19T06:57:41;6.80;99.90
24226;DHT22;51462;51.422;5.514;2022-12-19T07:00:12;6.70;99.90
24226;DHT22;51462;51.422;5.514;2022-12-19T07:02:38;6.60;99.90
24226;DHT22;51462;51.422;5.514;2022-12-19T07:05:07;6.70;99.90
24226;DHT22;51462;51.422;5.514;2022-12-19T07:07:33;6.80;99.90
24226;DHT22;51462;51.422;5.514;2022-12-19T07:09:58;6.90;99.90
24226;DHT22;51462;51.422;5.514;2022-12-19T07:12:24;6.90;99.90
24226;DHT22;51462;51.422;5.514;2022-12-19T07:14:49;6.80;99.90
24226;DHT22;51462;51.422;5.514;2022-12-19T07:17:15;6.90;99.90
24226;DHT22;51462;51.422;5.514;2022-12-19T07:19:42;6.90;99.90
24226;DHT22;51462;51.422;5.514;2022-12-19T07:22:08;7.00;99.90
24226;DHT22;51462;51.422;5.514;2022-12-19T07:24:34;6.90;99.90
24226;DHT22;51462;51.422;5.514;2022-12-19T07:27:01;6.80;99.90
24226;DHT22;51462;51.422;5.514;2022-12-19T07:29:26;6.70;99.90
24226;DHT22;51462;51.422;5.514;2022-12-19T07:31:52;6.90;99.90
24226;DHT22;51462;51.422;5.514;2022-12-19T07:34:18;6.90;99.90
24226;DHT22;51462;51.422;5.514;2022-12-19T07:36:43;6.90;99.90
24226;DHT22;51462;51.422;5.514;2022-12-19T07:39:09;6.80;99.90
24226;DHT22;51462;51.422;5.514;2022-12-19T07:41:38;6.80;99.90
24226;DHT22;51462;51.422;5.514;2022-12-19T07:44:04;6.80;99.90
24226;DHT22;51462;51.422;5.514;2022-12-19T07:46:30;6.80;99.90
24226;DHT22;51462;51.422;5.514;2022-12-19T07:48:57;6.90;99.90
24226;DHT22;51462;51.422;5.514;2022-12-19T07:51:23;7.00;99.90
24226;DHT22;51462;51.422;5.514;2022-12-19T07:53:48;6.80;99.90
24226;DHT22;51462;51.422;5.514;2022-12-19T07:56:14;6.90;99.90
24226;DHT22;51462;51.422;5.514;2022-12-19T07:58:40;7.00;99.90
24226;DHT22;51462;51.422;5.514;2022-12-19T08:01:05;7.10;99.90
24226;DHT22;51462;51.422;5.514;2022-12-19T08:03:31;7.00;99.90
24226;DHT22;51462;51.422;5.514;2022-12-19T08:06:02;7.10;99.90
24226;DHT22;51462;51.422;5.514;2022-12-19T08:08:29;7.20;99.90
24226;DHT22;51462;51.422;5.514;2022-12-19T08:10:55;7.20;99.90
24226;DHT22;51462;51.422;5.514;2022-12-19T08:13:21;7.10;99.90
24226;DHT22;51462;51.422;5.514;2022-12-19T08:15:47;7.20;99.90
24226;DHT22;51462;51.422;5.514;2022-12-19T08:18:13;7.10;99.90
24226;DHT22;51462;51.422;5.514;2022-12-19T08:20:38;7.00;99.90
24226;DHT22;51462;51.422;5.514;2022-12-19T08:23:04;7.00;99.90
24226;DHT22;51462;51.422;5.514;2022-12-19T08:25:29;7.00;99.90
24226;DHT22;51462;51.422;5.514;2022-12-19T08:27:55;7.00;99.90
24226;DHT22;51462;51.422;5.514;2022-12-19T08:30:20;7.20;99.90
24226;DHT22;51462;51.422;5.514;2022-12-19T08:32:46;7.20;99.90
24226;DHT22;51462;51.422;5.514;2022-12-19T08:35:12;7.10;99.90
24226;DHT22;51462;51.422;5.514;2022-12-19T08:37:38;7.10;99.90
24226;DHT22;51462;51.422;5.514;2022-12-19T08:40:04;7.20;99.90
24226;DHT22;51462;51.422;5.514;2022-12-19T08:42:30;7.30;99.90
24226;DHT22;51462;51.422;5.514;2022-12-19T08:44:55;7.30;99.90
24226;DHT22;51462;51.422;5.514;2022-12-19T08:47:21;7.30;99.90
24226;DHT22;51462;51.422;5.514;2022-12-19T08:49:46;7.30;99.90
24226;DHT22;51462;51.422;5.514;2022-12-19T08:52:12;7.20;99.90
24226;DHT22;51462;51.422;5.514;2022-12-19T08:54:37;7.20;99.90
24226;DHT22;51462;51.422;5.514;2022-12-19T08:57:03;7.40;99.90
24226;DHT22;51462;51.422;5.514;2022-12-19T08:59:29;7.30;99.90
24226;DHT22;51462;51.422;5.514;2022-12-19T09:01:54;7.50;99.90
24226;DHT22;51462;51.422;5.514;2022-12-19T09:04:20;7.40;99.90
24226;DHT22;51462;51.422;5.514;2022-12-19T09:06:45;7.40;99.90
24226;DHT22;51462;51.422;5.514;2022-12-19T09:09:11;7.50;99.90
24226;DHT22;51462;51.422;5.514;2022-12-19T09:11:37;7.50;99.90
24226;DHT22;51462;51.422;5.514;2022-12-19T09:14:02;7.50;99.90
24226;DHT22;51462;51.422;5.514;2022-12-19T09:16:29;7.60;99.90
24226;DHT22;51462;51.422;5.514;2022-12-19T09:18:56;7.60;99.90
24226;DHT22;51462;51.422;5.514;2022-12-19T09:21:24;7.70;99.90
24226;DHT22;51462;51.422;5.514;2022-12-19T09:23:52;7.60;99.90
24226;DHT22;51462;51.422;5.514;2022-12-19T09:26:19;7.60;99.90
24226;DHT22;51462;51.422;5.514;2022-12-19T09:28:46;7.70;99.90
24226;DHT22;51462;51.422;5.514;2022-12-19T09:31:15;7.60;99.90
24226;DHT22;51462;51.422;5.514;2022-12-19T09:33:41;7.70;99.90
24226;DHT22;51462;51.422;5.514;2022-12-19T09:36:11;7.80;99.90
24226;DHT22;51462;51.422;5.514;2022-12-19T09:38:36;7.60;99.90
24226;DHT22;51462;51.422;5.514;2022-12-19T09:46:19;7.70;99.90
24226;DHT22;51462;51.422;5.514;2022-12-19T09:48:53;7.70;99.90
24226;DHT22;51462;51.422;5.514;2022-12-19T09:51:39;7.80;99.90
24226;DHT22;51462;51.422;5.514;2022-12-19T09:54:17;7.80;99.90
24226;DHT22;51462;51.422;5.514;2022-12-19T09:56:47;7.80;99.90
24226;DHT22;51462;51.422;5.514;2022-12-19T09:59:24;8.00;99.90
24226;DHT22;51462;51.422;5.514;2022-12-19T10:02:03;8.00;99.90
24226;DHT22;51462;51.422;5.514;2022-12-19T10:04:37;8.00;99.90
24226;DHT22;51462;51.422;5.514;2022-12-19T10:07:08;8.00;99.90
24226;DHT22;51462;51.422;5.514;2022-12-19T10:09:34;8.10;99.90
24226;DHT22;51462;51.422;5.514;2022-12-19T10:15:08;8.10;99.90
24226;DHT22;51462;51.422;5.514;2022-12-19T10:20:31;8.10;99.90
24226;DHT22;51462;51.422;5.514;2022-12-19T10:26:10;8.20;99.90
24226;DHT22;51462;51.422;5.514;2022-12-19T10:31:17;8.30;99.90
24226;DHT22;51462;51.422;5.514;2022-12-19T10:36:21;8.30;99.90
24226;DHT22;51462;51.422;5.514;2022-12-19T10:39:04;8.20;99.90
24226;DHT22;51462;51.422;5.514;2022-12-19T10:41:33;8.10;99.90
24226;DHT22;51462;51.422;5.514;2022-12-19T10:44:01;8.10;99.90
24226;DHT22;51462;51.422;5.514;2022-12-19T10:46:41;8.20;99.90
24226;DHT22;51462;51.422;5.514;2022-12-19T10:49:15;8.20;99.90
24226;DHT22;51462;51.422;5.514;2022-12-19T10:54:22;8.30;99.90
24226;DHT22;51462;51.422;5.514;2022-12-19T10:56:47;8.40;99.90
24226;DHT22;51462;51.422;5.514;2022-12-19T10:59:18;8.20;99.90
24226;DHT22;51462;51.422;5.514;2022-12-19T11:01:44;8.20;99.90
24226;DHT22;51462;51.422;5.514;2022-12-19T11:04:33;8.10;99.90
24226;DHT22;51462;51.422;5.514;2022-12-19T11:07:04;8.10;99.90
24226;DHT22;51462;51.422;5.514;2022-12-19T11:09:36;8.10;99.90
24226;DHT22;51462;51.422;5.514;2022-12-19T11:14:38;8.10;99.90
24226;DHT22;51462;51.422;5.514;2022-12-19T11:17:22;8.00;99.90
24226;DHT22;51462;51.422;5.514;2022-12-19T11:19:50;8.00;99.90
24226;DHT22;51462;51.422;5.514;2022-12-19T11:22:23;8.20;99.90
24226;DHT22;51462;51.422;5.514;2022-12-19T11:24:52;8.20;99.90
24226;DHT22;51462;51.422;5.514;2022-12-19T11:27:39;8.10;99.90
24226;DHT22;51462;51.422;5.514;2022-12-19T11:30:27;8.10;99.90
24226;DHT22;51462;51.422;5.514;2022-12-19T11:33:26;8.20;99.90
24226;DHT22;51462;51.422;5.514;2022-12-19T11:35:54;8.20;99.90
24226;DHT22;51462;51.422;5.514;2022-12-19T11:38:34;8.30;99.90
24226;DHT22;51462;51.422;5.514;2022-12-19T11:43:59;8.50;99.90
24226;DHT22;51462;51.422;5.514;2022-12-19T11:46:44;8.50;99.90
24226;DHT22;51462;51.422;5.514;2022-12-19T11:49:37;8.60;99.90
24226;DHT22;51462;51.422;5.514;2022-12-19T11:55:24;8.40;99.90
24226;DHT22;51462;51.422;5.514;2022-12-19T11:57:51;8.70;99.90
24226;DHT22;51462;51.422;5.514;2022-12-19T12:00:20;8.70;99.90
24226;DHT22;51462;51.422;5.514;2022-12-19T12:05:39;8.60;99.90
24226;DHT22;51462;51.422;5.514;2022-12-19T12:10:58;8.80;99.90
24226;DHT22;51462;51.422;5.514;2022-12-19T12:13:40;8.70;99.90
24226;DHT22;51462;51.422;5.514;2022-12-19T12:16:13;8.80;99.90
24226;DHT22;51462;51.422;5.514;2022-12-19T12:19:43;8.90;99.90
24226;DHT22;51462;51.422;5.514;2022-12-19T12:22:11;8.90;99.90
24226;DHT22;51462;51.422;5.514;2022-12-19T12:46:13;9.30;99.90
24226;DHT22;51462;51.422;5.514;2022-12-19T12:48:44;9.20;99.90
24226;DHT22;51462;51.422;5.514;2022-12-19T12:51:12;9.20;99.90
24226;DHT22;51462;51.422;5.514;2022-12-19T12:53:41;9.40;99.90
24226;DHT22;51462;51.422;5.514;2022-12-19T12:56:08;9.30;99.90
24226;DHT22;51462;51.422;5.514;2022-12-19T13:11:53;9.40;99.90
24226;DHT22;51462;51.422;5.514;2022-12-19T13:17:07;9.50;99.90
24226;DHT22;51462;51.422;5.514;2022-12-19T13:19:35;9.40;99.90
24226;DHT22;51462;51.422;5.514;2022-12-19T13:24:58;9.40;99.90
24226;DHT22;51462;51.422;5.514;2022-12-19T13:27:37;9.40;99.90
24226;DHT22;51462;51.422;5.514;2022-12-19T13:30:12;9.50;99.90
24226;DHT22;51462;51.422;5.514;2022-12-19T13:45:59;9.50;99.90
24226;DHT22;51462;51.422;5.514;2022-12-19T13:48:32;9.60;99.90
24226;DHT22;51462;51.422;5.514;2022-12-19T13:51:03;9.60;99.90
24226;DHT22;51462;51.422;5.514;2022-12-19T13:53:29;9.60;99.90
24226;DHT22;51462;51.422;5.514;2022-12-19T13:55:59;9.50;99.90
24226;DHT22;51462;51.422;5.514;2022-12-19T13:58:28;9.40;99.90
24226;DHT22;51462;51.422;5.514;2022-12-19T14:00:56;9.40;99.90
24226;DHT22;51462;51.422;5.514;2022-12-19T14:03:39;9.50;99.90
24226;DHT22;51462;51.422;5.514;2022-12-19T14:06:23;9.80;99.90
24226;DHT22;51462;51.422;5.514;2022-12-19T14:08:52;9.60;99.90
24226;DHT22;51462;51.422;5.514;2022-12-19T14:11:19;9.70;99.90
24226;DHT22;51462;51.422;5.514;2022-12-19T14:13:49;9.60;99.90
24226;DHT22;51462;51.422;5.514;2022-12-19T14:16:34;9.60;99.90
24226;DHT22;51462;51.422;5.514;2022-12-19T14:18:59;9.60;99.90
24226;DHT22;51462;51.422;5.514;2022-12-19T14:21:26;9.60;99.90
24226;DHT22;51462;51.422;5.514;2022-12-19T14:24:08;9.50;99.90
24226;DHT22;51462;51.422;5.514;2022-12-19T14:26:33;9.60;99.90
24226;DHT22;51462;51.422;5.514;2022-12-19T14:29:07;9.70;99.90
24226;DHT22;51462;51.422;5.514;2022-12-19T14:31:36;9.70;99.90
24226;DHT22;51462;51.422;5.514;2022-12-19T14:34:04;9.80;99.90
24226;DHT22;51462;51.422;5.514;2022-12-19T14:36:31;9.80;99.90
24226;DHT22;51462;51.422;5.514;2022-12-19T14:38:58;9.80;99.90
24226;DHT22;51462;51.422;5.514;2022-12-19T14:44:11;9.90;99.90
24226;DHT22;51462;51.422;5.514;2022-12-19T14:46:37;9.90;99.90
24226;DHT22;51462;51.422;5.514;2022-12-19T14:49:19;10.00;99.90
24226;DHT22;51462;51.422;5.514;2022-12-19T14:51:46;9.90;99.90
24226;DHT22;51462;51.422;5.514;2022-12-19T14:54:16;9.90;99.90
24226;DHT22;51462;51.422;5.514;2022-12-19T14:56:49;9.90;99.90
24226;DHT22;51462;51.422;5.514;2022-12-19T15:01:54;10.00;99.90
24226;DHT22;51462;51.422;5.514;2022-12-19T15:04:24;10.00;99.90
24226;DHT22;51462;51.422;5.514;2022-12-19T15:06:53;9.80;99.90
24226;DHT22;51462;51.422;5.514;2022-12-19T15:09:19;9.80;99.90
24226;DHT22;51462;51.422;5.514;2022-12-19T15:11:47;9.90;99.90
24226;DHT22;51462;51.422;5.514;2022-12-19T15:14:46;9.80;99.90
24226;DHT22;51462;51.422;5.514;2022-12-19T15:17:23;9.70;99.90
24226;DHT22;51462;51.422;5.514;2022-12-19T15:19:50;9.80;99.90
24226;DHT22;51462;51.422;5.514;2022-12-19T15:22:16;10.00;99.90
24226;DHT22;51462;51.422;5.514;2022-12-19T15:24:42;9.90;99.90
24226;DHT22;51462;51.422;5.514;2022-12-19T15:27:11;9.90;99.90
24226;DHT22;51462;51.422;5.514;2022-12-19T15:29:39;9.90;99.90
24226;DHT22;51462;51.422;5.514;2022-12-19T15:32:07;9.90;99.90
24226;DHT22;51462;51.422;5.514;2022-12-19T15:34:33;9.90;99.90
24226;DHT22;51462;51.422;5.514;2022-12-19T15:37:00;9.80;99.90
24226;DHT22;51462;51.422;5.514;2022-12-19T15:39:26;9.80;99.90
24226;DHT22;51462;51.422;5.514;2022-12-19T15:41:56;9.90;99.90
24226;DHT22;51462;51.422;5.514;2022-12-19T15:44:40;9.90;99.90
24226;DHT22;51462;51.422;5.514;2022-12-19T15:49:42;9.90;99.90
24226;DHT22;51462;51.422;5.514;2022-12-19T15:52:17;9.80;99.90
24226;DHT22;51462;51.422;5.514;2022-12-19T15:54:44;9.70;99.90
24226;DHT22;51462;51.422;5.514;2022-12-19T15:57:34;9.70;99.90
24226;DHT22;51462;51.422;5.514;2022-12-19T16:00:21;9.70;99.90
24226;DHT22;51462;51.422;5.514;2022-12-19T16:02:50;9.80;99.90
24226;DHT22;51462;51.422;5.514;2022-12-19T16:05:18;9.90;99.90
24226;DHT22;51462;51.422;5.514;2022-12-19T16:07:44;9.80;99.90
24226;DHT22;51462;51.422;5.514;2022-12-19T16:10:10;9.80;99.90
24226;DHT22;51462;51.422;5.514;2022-12-19T16:12:40;9.80;99.90
24226;DHT22;51462;51.422;5.514;2022-12-19T16:15:31;9.60;99.90
24226;DHT22;51462;51.422;5.514;2022-12-19T16:17:58;9.80;99.90
24226;DHT22;51462;51.422;5.514;2022-12-19T16:20:27;9.80;99.90
24226;DHT22;51462;51.422;5.514;2022-12-19T16:22:53;9.70;99.90
24226;DHT22;51462;51.422;5.514;2022-12-19T16:25:20;9.80;99.90
24226;DHT22;51462;51.422;5.514;2022-12-19T16:27:52;9.70;99.90
24226;DHT22;51462;51.422;5.514;2022-12-19T16:30:24;9.80;99.90
24226;DHT22;51462;51.422;5.514;2022-12-19T16:32:51;9.90;99.90
24226;DHT22;51462;51.422;5.514;2022-12-19T16:35:19;9.70;99.90
24226;DHT22;51462;51.422;5.514;2022-12-19T16:37:46;9.80;99.90
24226;DHT22;51462;51.422;5.514;2022-12-19T16:40:19;9.80;99.90
24226;DHT22;51462;51.422;5.514;2022-12-19T16:42:46;9.80;99.90
24226;DHT22;51462;51.422;5.514;2022-12-19T16:45:24;9.60;99.90
24226;DHT22;51462;51.422;5.514;2022-12-19T16:47:50;9.90;99.90
24226;DHT22;51462;51.422;5.514;2022-12-19T16:50:20;9.90;99.90
24226;DHT22;51462;51.422;5.514;2022-12-19T16:52:47;9.70;99.90
24226;DHT22;51462;51.422;5.514;2022-12-19T16:55:13;9.80;99.90
24226;DHT22;51462;51.422;5.514;2022-12-19T16:57:41;9.90;99.90
24226;DHT22;51462;51.422;5.514;2022-12-19T17:00:12;9.90;99.90
24226;DHT22;51462;51.422;5.514;2022-12-19T17:03:26;9.80;99.90
24226;DHT22;51462;51.422;5.514;2022-12-19T17:05:28;9.80;99.90
24226;DHT22;51462;51.422;5.514;2022-12-19T17:07:55;9.80;99.90
24226;DHT22;51462;51.422;5.514;2022-12-19T17:10:22;9.80;99.90
24226;DHT22;51462;51.422;5.514;2022-12-19T17:12:49;9.80;99.90
24226;DHT22;51462;51.422;5.514;2022-12-19T17:15:20;9.70;99.90
24226;DHT22;51462;51.422;5.514;2022-12-19T17:17:47;9.80;99.90
24226;DHT22;51462;51.422;5.514;2022-12-19T17:20:18;9.70;99.90
24226;DHT22;51462;51.422;5.514;2022-12-19T17:22:45;9.70;99.90
24226;DHT22;51462;51.422;5.514;2022-12-19T17:25:19;9.70;99.90
24226;DHT22;51462;51.422;5.514;2022-12-19T17:27:45;9.70;99.90
24226;DHT22;51462;51.422;5.514;2022-12-19T17:30:11;9.80;99.90
24226;DHT22;51462;51.422;5.514;2022-12-19T17:32:36;9.80;99.90
24226;DHT22;51462;51.422;5.514;2022-12-19T17:35:02;9.80;99.90
24226;DHT22;51462;51.422;5.514;2022-12-19T17:37:28;9.80;99.90
24226;DHT22;51462;51.422;5.514;2022-12-19T17:39:53;9.70;99.90
24226;DHT22;51462;51.422;5.514;2022-12-19T17:42:21;9.90;99.90
24226;DHT22;51462;51.422;5.514;2022-12-19T17:44:47;9.90;99.90
24226;DHT22;51462;51.422;5.514;2022-12-19T17:47:18;9.90;99.90
24226;DHT22;51462;51.422;5.514;2022-12-19T17:49:47;9.90;99.90
24226;DHT22;51462;51.422;5.514;2022-12-19T17:52:14;9.80;99.90
24226;DHT22;51462;51.422;5.514;2022-12-19T17:54:40;9.80;99.90
24226;DHT22;51462;51.422;5.514;2022-12-19T17:57:17;9.80;99.90
24226;DHT22;51462;51.422;5.514;2022-12-19T17:59:43;9.80;99.90
24226;DHT22;51462;51.422;5.514;2022-12-19T18:02:19;9.80;99.90
24226;DHT22;51462;51.422;5.514;2022-12-19T18:04:46;9.80;99.90
24226;DHT22;51462;51.422;5.514;2022-12-19T18:07:16;9.90;99.90
24226;DHT22;51462;51.422;5.514;2022-12-19T18:09:43;9.80;99.90
24226;DHT22;51462;51.422;5.514;2022-12-19T18:12:09;9.80;99.90
24226;DHT22;51462;51.422;5.514;2022-12-19T18:14:35;9.80;99.90
24226;DHT22;51462;51.422;5.514;2022-12-19T18:17:02;9.90;99.90
24226;DHT22;51462;51.422;5.514;2022-12-19T18:19:29;9.90;99.90
24226;DHT22;51462;51.422;5.514;2022-12-19T18:21:55;9.80;99.90